createdAt,value
2022-08-10T00:00:55.764Z,102413.66
2022-08-10T00:03:23.669Z,102416.78
2022-08-10T00:05:54.753Z,102418.34
2022-08-10T00:08:25.037Z,102408.72
2022-08-10T00:10:54.971Z,102405.22
2022-08-10T00:13:23.576Z,102420.94
2022-08-10T00:15:54.862Z,102407.13
2022-08-10T00:18:34.602Z,102412.28
2022-08-10T00:21:04.902Z,102400.72
2022-08-10T00:23:32.868Z,102396.88
2022-08-10T00:26:02.743Z,102399.97
2022-08-10T00:28:30.669Z,102417.19
2022-08-10T00:30:58.578Z,102407.69
2022-08-10T00:33:26.798Z,102410.31
2022-08-10T00:35:54.640Z,102404.38
2022-08-10T00:38:22.419Z,102386.78
2022-08-10T00:40:50.206Z,102400.38
2022-08-10T00:43:23.359Z,102399.94
2022-08-10T00:45:59.330Z,102389.28
2022-08-10T00:48:29.185Z,102413.09
2022-08-10T00:50:57.365Z,102408.88
2022-08-10T00:53:26.242Z,102428.91
2022-08-10T00:56:34.905Z,102449.91
2022-08-10T00:58:44.312Z,102458.63
2022-08-10T01:02:08.913Z,102463.09
2022-08-10T01:04:42.035Z,102465.69
2022-08-10T01:07:14.749Z,102454.97
2022-08-10T01:09:57.121Z,102453.19
2022-08-10T01:12:40.884Z,102447.34
2022-08-10T01:15:15.765Z,102435.09
2022-08-10T01:17:53.633Z,102442.16
2022-08-10T01:20:31.401Z,102451.19
2022-08-10T01:23:38.583Z,102475.25
2022-08-10T01:26:31.175Z,102490.97
2022-08-10T01:29:17.845Z,102477.34
2022-08-10T01:31:51.908Z,102474.78
2022-08-10T01:34:23.771Z,102473.97
2022-08-10T01:36:54.778Z,102475.47
2022-08-10T01:39:27.516Z,102484.09
2022-08-10T01:41:58.090Z,102449.75
2022-08-10T01:44:30.642Z,102448.94
2022-08-10T01:47:22.027Z,102452.84
2022-08-10T01:49:51.756Z,102443.84
2022-08-10T01:52:21.859Z,102439.22
2022-08-10T01:54:52.923Z,102438.91
2022-08-10T01:57:25.668Z,102428.34
2022-08-10T01:59:58.669Z,102428.50
2022-08-10T02:02:33.033Z,102426.25
2022-08-10T02:05:03.352Z,102429.91
2022-08-10T02:07:32.415Z,102443.94
2022-08-10T02:10:03.663Z,102441.47
2022-08-10T02:12:33.761Z,102432.28
2022-08-10T02:15:05.089Z,102438.31
2022-08-10T02:18:00.212Z,102437.72
2022-08-10T02:20:31.569Z,102447.16
2022-08-10T02:23:01.882Z,102450.06
2022-08-10T02:25:41.574Z,102445.50
2022-08-10T02:28:27.076Z,102430.59
2022-08-10T02:31:00.143Z,102432.09
2022-08-10T02:33:30.968Z,102447.88
2022-08-10T02:36:01.627Z,102480.34
2022-08-10T02:38:58.326Z,102501.22
2022-08-10T02:42:18.118Z,102478.44
2022-08-10T02:45:22.198Z,102485.75
2022-08-10T02:47:19.630Z,102475.34
2022-08-10T02:49:52.989Z,102466.06
2022-08-10T02:52:26.036Z,102479.94
2022-08-10T02:55:04.694Z,102472.91
2022-08-10T02:58:13.877Z,102481.28
2022-08-10T03:00:45.420Z,102474.59
2022-08-10T03:03:18.206Z,102469.88
2022-08-10T03:05:50.367Z,102473.94
2022-08-10T03:08:22.278Z,102459.44
2022-08-10T03:10:51.483Z,102465.66
2022-08-10T03:13:20.293Z,102445.97
2022-08-10T03:15:49.296Z,102461.06
2022-08-10T03:18:19.294Z,102460.50
2022-08-10T03:20:49.854Z,102462.94
2022-08-10T03:23:20.114Z,102446.31
2022-08-10T03:25:52.664Z,102458.34
2022-08-10T03:28:23.103Z,102464.09
2022-08-10T03:30:52.048Z,102457.13
2022-08-10T03:33:22.097Z,102471.25
2022-08-10T03:36:43.309Z,102465.75
2022-08-10T03:38:40.454Z,102473.94
2022-08-10T03:41:15.943Z,102478.56
2022-08-10T03:43:47.743Z,102486.75
2022-08-10T03:46:17.162Z,102510.53
2022-08-10T03:48:49.601Z,102565.22
2022-08-10T03:51:21.095Z,102589.53
2022-08-10T03:54:04.368Z,102587.53
2022-08-10T03:56:36.059Z,102588.94
2022-08-10T03:59:04.896Z,102577.16
2022-08-10T04:02:41.502Z,102580.41
2022-08-10T04:04:24.501Z,102585.25
2022-08-10T04:06:56.331Z,102562.84
2022-08-10T04:09:43.280Z,102560.84
2022-08-10T04:12:14.401Z,102542.22
2022-08-10T04:14:49.564Z,102538.16
2022-08-10T04:18:04.906Z,102528.56
2022-08-10T04:20:11.644Z,102513.66
2022-08-10T04:22:42.589Z,102516.28
2022-08-10T04:25:13.521Z,102494.91
2022-08-10T04:27:41.451Z,102511.13
2022-08-10T04:30:10.923Z,102483.56
2022-08-10T04:32:39.246Z,102494.56
2022-08-10T04:35:11.210Z,102494.69
2022-08-10T04:37:46.879Z,102498.66
2022-08-10T04:40:29.966Z,102510.44
2022-08-10T04:43:11.352Z,102513.50
2022-08-10T04:45:48.264Z,102522.06
2022-08-10T04:48:40.613Z,102503.00
2022-08-10T04:51:07.873Z,102487.75
2022-08-10T04:54:05.316Z,102452.44
2022-08-10T04:56:31.520Z,102455.53
2022-08-10T04:59:00.303Z,102456.94
2022-08-10T05:02:21.153Z,102450.63
2022-08-10T05:04:35.841Z,102451.59
2022-08-10T05:07:03.740Z,102481.28
2022-08-10T05:09:33.366Z,102471.44
2022-08-10T05:12:21.262Z,102447.00
2022-08-10T05:14:49.201Z,102424.00
2022-08-10T05:17:16.961Z,102411.56
2022-08-10T05:20:02.278Z,102428.84
2022-08-10T05:22:32.614Z,102463.69
2022-08-10T05:25:01.854Z,102480.16
2022-08-10T05:27:29.602Z,102483.06
2022-08-10T05:30:02.505Z,102475.47
2022-08-10T05:32:31.310Z,102470.44
2022-08-10T05:34:59.208Z,102476.75
2022-08-10T05:38:09.385Z,102467.66
2022-08-10T05:40:18.627Z,102458.69
2022-08-10T05:42:46.390Z,102462.22
2022-08-10T05:45:21.176Z,102473.94
2022-08-10T05:48:41.852Z,102464.75
2022-08-10T05:50:37.656Z,102488.81
2022-08-10T05:53:59.051Z,102483.25
2022-08-10T05:55:55.354Z,102471.75
2022-08-10T05:58:23.490Z,102463.28
2022-08-10T06:00:54.457Z,102479.06
2022-08-10T06:03:28.711Z,102479.94
2022-08-10T06:05:59.638Z,102479.94
2022-08-10T06:08:31.978Z,102467.06
2022-08-10T06:12:27.615Z,102445.91
2022-08-10T06:14:15.782Z,102447.50
2022-08-10T06:16:44.888Z,102435.75
2022-08-10T06:19:15.088Z,102411.69
2022-08-10T06:22:00.427Z,102396.81
2022-08-10T06:24:30.922Z,102393.31
2022-08-10T06:27:00.379Z,102390.38
2022-08-10T06:29:31.854Z,102376.78
2022-08-10T06:32:01.751Z,102387.66
2022-08-10T06:34:33.084Z,102384.09
2022-08-10T06:37:03.722Z,102376.00
2022-08-10T06:39:34.982Z,102374.50
2022-08-10T06:42:14.918Z,102381.09
2022-08-10T06:44:52.415Z,102379.38
2022-08-10T06:47:24.440Z,102377.13
2022-08-10T06:49:59.544Z,102374.16
2022-08-10T06:52:31.725Z,102380.06
2022-08-10T06:55:01.549Z,102380.00
2022-08-10T06:57:38.536Z,102388.13
2022-08-10T07:00:08.131Z,102391.25
2022-08-10T07:02:44.196Z,102382.53
2022-08-10T07:05:18.176Z,102391.50
2022-08-10T07:07:47.992Z,102417.88
2022-08-10T07:10:20.071Z,102434.34
2022-08-10T07:12:52.290Z,102437.34
2022-08-10T07:15:21.337Z,102449.75
2022-08-10T07:17:50.307Z,102456.94
2022-08-10T07:20:19.747Z,102463.88
2022-08-10T07:23:51.748Z,102476.59
2022-08-10T07:25:40.545Z,102485.81
2022-08-10T07:28:11.114Z,102492.88
2022-08-10T07:30:40.604Z,102496.97
2022-08-10T07:33:09.495Z,102521.19
2022-08-10T07:35:42.246Z,102580.63
2022-08-10T07:38:14.118Z,102622.06
2022-08-10T07:40:43.396Z,102633.44
2022-08-10T07:43:14.660Z,102649.91
2022-08-10T07:45:42.449Z,102693.75
2022-08-10T07:48:16.107Z,102697.69
2022-08-10T07:50:44.548Z,102707.56
2022-08-10T07:53:18.288Z,102713.41
2022-08-10T07:56:07.331Z,102724.53
2022-08-10T07:58:51.964Z,102754.25
2022-08-10T08:01:24.401Z,102771.50
2022-08-10T08:04:05.323Z,102758.44
2022-08-10T08:06:41.466Z,102760.78
2022-08-10T08:09:10.083Z,102781.34
2022-08-10T08:11:40.380Z,102785.66
2022-08-10T08:14:10.863Z,102782.72
2022-08-10T08:16:42.587Z,102787.25
2022-08-10T08:19:35.393Z,102790.31
2022-08-10T08:24:14.599Z,102775.88
2022-08-10T08:24:48.498Z,102774.84
2022-08-10T08:27:21.402Z,102783.63
2022-08-10T08:29:52.094Z,102796.53
2022-08-10T08:32:23.343Z,102803.06
2022-08-10T08:34:55.506Z,102809.31
2022-08-10T08:38:29.908Z,102803.47
2022-08-10T08:40:19.860Z,102811.91
2022-08-10T08:43:25.505Z,102812.78
2022-08-10T08:46:19.515Z,102809.78
2022-08-10T08:49:03.275Z,102809.63
2022-08-10T08:52:09.338Z,102809.66
2022-08-10T08:54:46.557Z,102810.00
2022-08-10T08:57:49.195Z,102809.00
2022-08-10T09:00:19.392Z,102812.88
2022-08-10T09:03:11.446Z,102808.03
2022-08-10T09:05:58.433Z,102805.72
2022-08-10T09:08:55.457Z,102795.16
2022-08-10T09:11:39.492Z,102791.28
2022-08-10T09:14:12.514Z,102789.16
2022-08-10T09:16:48.584Z,102784.66
2022-08-10T09:19:38.682Z,102770.34
2022-08-10T09:22:18.418Z,102774.34
2022-08-10T09:24:53.151Z,102776.56
2022-08-10T09:27:23.839Z,102775.13
2022-08-10T09:29:57.123Z,102773.84
2022-08-10T09:36:13.677Z,102770.31
2022-08-10T09:36:21.526Z,102778.13
2022-08-10T09:38:34.803Z,102782.28
2022-08-10T09:41:17.496Z,102765.31
2022-08-10T09:43:56.065Z,102759.09
2022-08-10T09:46:46.643Z,102760.78
2022-08-10T09:49:52.764Z,102760.63
2022-08-10T09:52:18.645Z,102755.03
2022-08-10T09:55:07.700Z,102758.41
2022-08-10T09:57:46.648Z,102747.81
2022-08-10T10:00:17.453Z,102751.19
2022-08-10T10:03:02.573Z,102741.53
2022-08-10T10:05:51.204Z,102729.06
2022-08-10T10:08:29.111Z,102717.16
2022-08-10T10:11:09.279Z,102720.50
2022-08-10T10:14:02.670Z,102720.06
2022-08-10T10:16:43.014Z,102712.13
2022-08-10T10:19:20.137Z,102720.84
2022-08-10T10:21:56.726Z,102725.16
2022-08-10T10:24:36.926Z,102728.28
2022-08-10T10:27:19.512Z,102727.31
2022-08-10T10:29:57.975Z,102734.72
2022-08-10T10:32:37.626Z,102725.56
2022-08-10T10:35:15.120Z,102716.66
2022-08-10T10:38:02.539Z,102715.09
2022-08-10T10:40:40.306Z,102711.59
2022-08-10T10:43:22.880Z,102715.31
2022-08-10T10:46:02.739Z,102713.28
2022-08-10T10:48:41.288Z,102718.59
2022-08-10T10:51:15.111Z,102710.03
2022-08-10T10:53:50.676Z,102715.63
2022-08-10T10:56:27.621Z,102717.75
2022-08-10T10:59:53.879Z,102717.47
2022-08-10T11:02:07.398Z,102711.44
2022-08-10T11:04:41.499Z,102719.88
2022-08-10T11:07:21.861Z,102712.97
2022-08-10T11:10:07.884Z,102719.97
2022-08-10T11:14:25.088Z,102717.28
2022-08-10T11:16:07.551Z,102711.78
2022-08-10T11:18:49.249Z,102705.28
2022-08-10T11:21:29.472Z,102711.28
2022-08-10T11:24:48.789Z,102706.94
2022-08-10T11:26:57.152Z,102708.81
2022-08-10T11:29:34.618Z,102710.28
2022-08-10T11:32:07.943Z,102692.66
2022-08-10T11:35:10.611Z,102708.13
2022-08-10T11:38:34.594Z,102704.19
2022-08-10T11:40:45.211Z,102705.81
2022-08-10T11:43:21.113Z,102687.53
2022-08-10T11:45:55.945Z,102701.56
2022-08-10T11:48:53.723Z,102694.91
2022-08-10T11:51:26.316Z,102694.88
2022-08-10T11:54:01.499Z,102697.00
2022-08-10T11:56:34.439Z,102684.41
2022-08-10T11:59:19.719Z,102691.56
2022-08-10T12:01:51.769Z,102691.50
2022-08-10T12:04:22.401Z,102687.94
2022-08-10T12:06:55.759Z,102687.59
2022-08-10T12:10:11.508Z,102682.81
2022-08-10T12:12:14.561Z,102682.59
2022-08-10T12:14:47.438Z,102687.72
2022-08-10T12:17:20.386Z,102689.44
2022-08-10T12:19:59.080Z,102678.72
2022-08-10T12:22:34.251Z,102679.69
2022-08-10T12:25:05.595Z,102675.63
2022-08-10T12:27:41.253Z,102679.66
2022-08-10T12:30:11.849Z,102669.38
2022-08-10T12:32:49.522Z,102681.69
2022-08-10T12:35:26.766Z,102660.53
2022-08-10T12:38:06.249Z,102669.16
2022-08-10T12:40:41.870Z,102652.00
2022-08-10T12:44:06.604Z,102651.19
2022-08-10T12:46:20.816Z,102664.59
2022-08-10T12:48:57.124Z,102661.22
2022-08-10T12:51:30.305Z,102636.94
2022-08-10T12:54:08.215Z,102635.00
2022-08-10T12:56:40.110Z,102654.63
2022-08-10T12:59:11.001Z,102637.19
2022-08-10T13:02:06.454Z,102625.50
2022-08-10T13:04:32.510Z,102628.00
2022-08-10T13:07:01.973Z,102630.88
2022-08-10T13:09:30.796Z,102636.97
2022-08-10T13:12:36.795Z,102630.03
2022-08-10T13:14:55.283Z,102644.88
2022-08-10T13:17:38.939Z,102635.19
2022-08-10T13:20:17.327Z,102637.97
2022-08-10T13:22:48.533Z,102626.31
2022-08-10T13:25:21.263Z,102621.34
2022-08-10T13:28:01.331Z,102624.34
2022-08-10T13:30:40.313Z,102629.97
2022-08-10T13:33:10.466Z,102617.78
2022-08-10T13:35:41.059Z,102619.88
2022-08-10T13:38:11.294Z,102625.25
2022-08-10T13:40:39.886Z,102615.53
2022-08-10T13:43:09.997Z,102613.97
2022-08-10T13:45:47.885Z,102615.41
2022-08-10T13:48:21.337Z,102624.97
2022-08-10T13:50:53.322Z,102621.53
2022-08-10T13:53:22.933Z,102612.56
2022-08-10T13:55:55.874Z,102613.63
2022-08-10T13:58:27.432Z,102618.16
2022-08-10T14:00:56.739Z,102611.50
2022-08-10T14:03:26.338Z,102608.19
2022-08-10T14:05:58.533Z,102599.72
2022-08-10T14:08:30.270Z,102614.41
2022-08-10T14:11:11.567Z,102601.97
2022-08-10T14:13:44.415Z,102600.75
2022-08-10T14:16:14.151Z,102605.38
2022-08-10T14:18:44.929Z,102594.09
2022-08-10T14:21:15.266Z,102590.59
2022-08-10T14:23:51.869Z,102587.19
2022-08-10T14:26:24.782Z,102588.56
2022-08-10T14:28:59.227Z,102583.47
2022-08-10T14:31:33.756Z,102593.59
2022-08-10T14:34:04.511Z,102590.69
2022-08-10T14:36:43.367Z,102583.22
2022-08-10T14:39:17.040Z,102590.88
2022-08-10T14:42:01.713Z,102593.16
2022-08-10T14:44:45.318Z,102596.50
2022-08-10T14:47:52.418Z,102574.16
2022-08-10T14:50:05.096Z,102578.00
2022-08-10T14:52:40.189Z,102577.38
2022-08-10T14:55:19.710Z,102572.38
2022-08-10T14:58:19.868Z,102577.31
2022-08-10T15:00:43.161Z,102574.53
2022-08-10T15:04:02.302Z,102567.69
2022-08-10T15:06:16.988Z,102579.06
2022-08-10T15:08:48.930Z,102561.00
2022-08-10T15:12:13.859Z,102572.16
2022-08-10T15:14:29.306Z,102569.66
2022-08-10T15:16:59.435Z,102561.38
2022-08-10T15:20:00.791Z,102567.88
2022-08-10T15:22:36.521Z,102571.69
2022-08-10T15:25:19.353Z,102562.00
2022-08-10T15:27:56.233Z,102562.88
2022-08-10T15:30:30.120Z,102560.03
2022-08-10T15:33:21.279Z,102545.25
2022-08-10T15:36:25.915Z,102550.81
2022-08-10T15:39:00.390Z,102542.06
2022-08-10T15:41:57.535Z,102562.75
2022-08-10T15:44:37.732Z,102563.59
2022-08-10T15:47:09.233Z,102557.53
2022-08-10T15:49:45.396Z,102556.34
2022-08-10T15:53:00.013Z,102562.78
2022-08-10T15:55:44.247Z,102547.47
2022-08-10T15:58:08.159Z,102549.16
2022-08-10T16:00:40.870Z,102537.44
2022-08-10T16:03:14.646Z,102545.63
2022-08-10T16:06:00.332Z,102546.69
2022-08-10T16:08:36.278Z,102547.34
2022-08-10T16:11:38.153Z,102535.75
2022-08-10T16:14:17.894Z,102538.09
2022-08-10T16:16:51.172Z,102535.28
2022-08-10T16:19:24.939Z,102540.97
2022-08-10T16:22:34.253Z,102532.78
2022-08-10T16:24:52.827Z,102531.53
2022-08-10T16:27:23.607Z,102524.03
2022-08-10T16:29:59.514Z,102536.47
2022-08-10T16:32:30.116Z,102524.66
2022-08-10T16:35:00.501Z,102517.66
2022-08-10T16:37:57.255Z,102525.78
2022-08-10T16:40:25.477Z,102534.69
2022-08-10T16:42:55.137Z,102529.00
2022-08-10T16:45:31.719Z,102523.38
2022-08-10T16:48:00.396Z,102519.84
2022-08-10T16:50:30.793Z,102515.94
2022-08-10T16:53:02.172Z,102508.03
2022-08-10T16:55:47.432Z,102501.44
2022-08-10T16:58:18.987Z,102495.75
2022-08-10T17:00:50.271Z,102498.78
2022-08-10T17:03:22.393Z,102495.47
2022-08-10T17:06:13.562Z,102492.34
2022-08-10T17:08:47.882Z,102496.53
2022-08-10T17:11:18.468Z,102494.94
2022-08-10T17:13:46.663Z,102486.09
2022-08-10T17:16:17.540Z,102482.25
2022-08-10T17:18:47.955Z,102490.84
2022-08-10T17:21:20.978Z,102492.28
2022-08-10T17:23:52.650Z,102488.53
2022-08-10T17:26:35.682Z,102489.41
2022-08-10T17:29:09.183Z,102485.63
2022-08-10T17:31:54.540Z,102497.44
2022-08-10T17:34:29.270Z,102490.84
2022-08-10T17:36:59.138Z,102483.88
2022-08-10T17:39:32.232Z,102486.06
2022-08-10T17:42:01.963Z,102487.84
2022-08-10T17:44:35.610Z,102488.94
2022-08-10T17:47:10.859Z,102481.41
2022-08-10T17:49:41.178Z,102472.78
2022-08-10T17:52:11.675Z,102464.47
2022-08-10T17:54:44.338Z,102472.34
2022-08-10T17:57:17.877Z,102471.41
2022-08-10T18:01:58.238Z,102459.03
2022-08-10T18:04:34.174Z,102461.72
2022-08-10T18:07:10.923Z,102462.31
2022-08-10T18:09:41.548Z,102449.69
2022-08-10T18:12:18.092Z,102449.81
2022-08-10T18:14:51.134Z,102432.09
2022-08-10T18:17:22.737Z,102440.75
2022-08-10T18:19:54.762Z,102445.19
2022-08-10T18:22:25.220Z,102450.47
2022-08-10T18:24:55.196Z,102446.06
2022-08-10T18:28:01.139Z,102441.06
2022-08-10T18:30:14.544Z,102443.63
2022-08-10T18:32:49.017Z,102431.78
2022-08-10T18:35:19.767Z,102433.69
2022-08-10T18:37:53.587Z,102430.06
2022-08-10T18:40:21.581Z,102434.94
2022-08-10T18:43:09.933Z,102417.03
2022-08-10T18:45:56.786Z,102404.41
2022-08-10T18:48:45.275Z,102408.72
2022-08-10T18:51:14.415Z,102400.28
2022-08-10T18:53:48.209Z,102386.69
2022-08-10T18:56:29.678Z,102391.91
2022-08-10T18:59:09.592Z,102387.94
2022-08-10T19:02:00.700Z,102390.81
2022-08-10T19:04:44.960Z,102393.66
2022-08-10T19:07:36.375Z,102389.47
2022-08-10T19:10:15.244Z,102383.97
2022-08-10T19:12:52.656Z,102387.41
2022-08-10T19:15:27.410Z,102383.63
2022-08-10T19:18:18.021Z,102380.16
2022-08-10T19:20:54.217Z,102378.72
2022-08-10T19:23:44.888Z,102383.06
2022-08-10T19:26:41.772Z,102383.34
2022-08-10T19:30:09.097Z,102373.41
2022-08-10T19:32:26.396Z,102380.53
2022-08-10T19:35:03.992Z,102366.50
2022-08-10T19:37:41.343Z,102376.00
2022-08-10T19:40:46.521Z,102362.63
2022-08-10T19:43:30.837Z,102353.88
2022-08-10T19:46:15.483Z,102351.78
2022-08-10T19:48:48.837Z,102359.47
2022-08-10T19:51:23.917Z,102368.91
2022-08-10T19:54:04.411Z,102364.00
2022-08-10T19:56:45.534Z,102360.66
2022-08-10T20:00:15.877Z,102358.69
2022-08-10T20:02:21.122Z,102349.34
2022-08-10T20:05:02.731Z,102351.88
2022-08-10T20:07:37.321Z,102349.84
2022-08-10T20:10:14.013Z,102351.13
2022-08-10T20:12:51.654Z,102335.16
2022-08-10T20:15:30.493Z,102328.78
2022-08-10T20:18:06.735Z,102323.88
2022-08-10T20:20:49.098Z,102317.94
2022-08-10T20:23:18.927Z,102316.66
2022-08-10T20:25:56.241Z,102321.78
2022-08-10T20:29:59.724Z,102307.34
2022-08-10T20:32:34.502Z,102308.72
2022-08-10T20:35:07.893Z,102308.56
2022-08-10T20:38:02.833Z,102309.38
2022-08-10T20:40:39.879Z,102304.88
2022-08-10T20:43:17.416Z,102316.78
2022-08-10T20:46:07.995Z,102313.28
2022-08-10T20:48:41.492Z,102296.63
2022-08-10T20:51:14.991Z,102290.88
2022-08-10T20:53:47.926Z,102306.19
2022-08-10T20:56:26.978Z,102302.09
2022-08-10T20:59:15.880Z,102310.56
2022-08-10T21:02:11.861Z,102301.31
2022-08-10T21:04:52.560Z,102320.56
2022-08-10T21:08:01.129Z,102318.25
2022-08-10T21:10:42.114Z,102312.41
2022-08-10T21:13:22.258Z,102317.94
2022-08-10T21:16:01.636Z,102300.81
2022-08-10T21:18:51.836Z,102307.81
2022-08-10T21:24:32.237Z,102285.22
2022-08-10T21:25:41.618Z,102309.88
2022-08-10T21:27:13.353Z,102277.13
2022-08-10T21:29:56.411Z,102270.94
2022-08-10T21:32:40.086Z,102258.94
2022-08-10T21:35:36.802Z,102262.31
2022-08-10T21:38:11.348Z,102241.28
2022-08-10T21:41:18.034Z,102205.84
2022-08-10T21:44:05.669Z,102209.41
2022-08-10T21:47:02.701Z,102183.50
2022-08-10T21:50:04.024Z,102170.94
2022-08-10T21:53:04.283Z,102158.00
2022-08-10T21:56:09.657Z,102151.63
2022-08-10T21:59:01.860Z,102136.31
2022-08-10T22:01:53.502Z,102136.69
2022-08-10T22:04:40.144Z,102126.38
2022-08-10T22:07:33.508Z,102123.38
2022-08-10T22:10:22.828Z,102123.59
2022-08-10T22:13:13.387Z,102102.56
2022-08-10T22:16:10.956Z,102111.97
2022-08-10T22:19:02.988Z,102099.72
2022-08-10T22:22:27.159Z,102095.34
2022-08-10T22:25:29.588Z,102090.81
2022-08-10T22:28:18.145Z,102089.63
2022-08-10T22:34:29.158Z,102090.63
2022-08-10T22:37:39.593Z,102085.44
2022-08-10T22:40:32.136Z,102086.75
2022-08-10T22:43:35.523Z,102078.88
2022-08-10T22:46:25.343Z,102068.13
2022-08-10T22:49:01.257Z,102063.63
2022-08-10T22:51:39.236Z,102064.63
2022-08-10T22:54:33.380Z,102066.47
2022-08-10T22:57:21.898Z,102071.84
2022-08-10T22:59:50.910Z,102071.16
2022-08-10T23:02:29.949Z,102081.97
2022-08-10T23:05:04.715Z,102081.34
2022-08-10T23:07:35.435Z,102087.88
2022-08-10T23:10:06.836Z,102087.75
2022-08-10T23:12:40.403Z,102093.97
2022-08-10T23:15:35.458Z,102081.03
2022-08-10T23:18:25.316Z,102093.28
2022-08-10T23:20:57.827Z,102078.34
2022-08-10T23:23:28.740Z,102088.59
2022-08-10T23:26:00.353Z,102086.25
2022-08-10T23:28:38.885Z,102081.31
2022-08-10T23:31:59.045Z,102092.28
2022-08-10T23:34:14.420Z,102100.63
2022-08-10T23:36:43.623Z,102095.75
2022-08-10T23:39:26.440Z,102104.66
2022-08-10T23:42:04.720Z,102101.13
2022-08-10T23:44:48.448Z,102108.50
2022-08-10T23:47:21.209Z,102096.81
2022-08-10T23:49:51.283Z,102091.22
2022-08-10T23:52:21.871Z,102093.06
2022-08-10T23:54:55.568Z,102094.84
2022-08-10T23:57:26.104Z,102107.34
2022-08-10T23:59:59.050Z,102120.88
